Kettering, Ohio
Current Conditions -  °F | °C
As of 12:53 AM on Sunday 21 Dec 2014 (Local Time) from KMGY Reporting Station
Haze Haze  
Wind Chill: 24°   Ceiling: 2600
Heat Index: 24°   Visibility: 5mi
Dew Point: 23°   Wind: 0mph
Humidity: 96%   Direction: NA
Pressure: 30.28"   Gusts: NA
Location:  39.7°N, 84.16°W
Report Text: KMGY 210553Z AUTO 00000KT 5SM BR BKN026 M04/M05 A3028 RMK AO2 SLP264 I1001 I6001 T10441050 11006 21044 50002
Loading
Personal Weather Stations






























Interactive Weather Map New forecast layout! Learn more

10-Day Weather Forecast

Advertisements
Track Severe Weather on mobile